Time;durP1;ratioP1;P1;durP2;ratioP2;P2;SDS_P1;SDS_P2;PMS_P1;PMS_P2;Temp;Humidity;BMP_temperature;BMP_pressure;BME280_temperature;BME280_humidity;BME280_pressure;Samples;Min_cycle;Max_cycle;Signal;HPM_P1;HPM_P2
2022/08/10 00:01:34;;;;;;;2.95;2.47;;;;;;;-146.58;100.00;69501.63;5031722;28;20022;-61
2022/08/10 00:04:00;;;;;;;4.00;2.40;;;;;;;-146.58;100.00;69501.63;5032962;28;20444;-61
2022/08/10 00:06:26;;;;;;;3.17;2.90;;;;;;;-146.58;100.00;69501.63;5015782;28;20041;-60
2022/08/10 00:08:51;;;;;;;4.03;2.70;;;;;;;-146.58;100.00;69501.63;5012659;28;20022;-60
2022/08/10 00:11:17;;;;;;;2.55;2.35;;;;;;;-146.58;100.00;69501.63;5011339;28;20108;-60
2022/08/10 00:13:42;;;;;;;2.10;2.00;;;;;;;-146.58;100.00;69501.63;5025965;28;20017;-59
2022/08/10 00:16:08;;;;;;;3.75;2.17;;;;;;;-146.58;100.00;69501.63;5021392;28;20041;-60
2022/08/10 00:18:33;;;;;;;6.68;2.58;;;;;;;-146.58;100.00;69501.63;5012523;28;20025;-60
2022/08/10 00:20:59;;;;;;;5.05;3.03;;;;;;;-146.58;100.00;69501.63;5024619;28;20046;-59
2022/08/10 00:23:24;;;;;;;2.90;2.60;;;;;;;-146.58;100.00;69501.63;5032002;28;20048;-59
2022/08/10 00:25:49;;;;;;;2.45;2.25;;;;;;;-146.58;100.00;69501.63;5030701;28;20034;-59
2022/08/10 00:28:15;;;;;;;3.28;2.97;;;;;;;-146.58;100.00;69501.63;5031399;28;20184;-59
2022/08/10 00:30:40;;;;;;;3.50;3.17;;;;;;;-146.58;100.00;69501.63;5030454;28;20045;-59
2022/08/10 00:33:05;;;;;;;2.85;2.65;;;;;;;-146.58;100.00;69501.63;5028639;28;20026;-59
2022/08/10 00:35:31;;;;;;;5.60;2.42;;;;;;;-146.58;100.00;69501.63;5010682;28;20042;-59
2022/08/10 00:37:57;;;;;;;3.65;2.97;;;;;;;-146.58;100.00;69501.63;5012145;28;20041;-59
2022/08/10 00:40:22;;;;;;;3.03;2.83;;;;;;;-146.58;100.00;69501.63;5010681;28;20044;-59
2022/08/10 00:42:48;;;;;;;3.88;3.33;;;;;;;-146.58;100.00;69501.63;5010991;28;20026;-59
2022/08/10 00:45:13;;;;;;;4.18;2.58;;;;;;;-146.58;100.00;69501.63;5010563;28;20044;-59
2022/08/10 00:47:38;;;;;;;8.23;6.63;;;;;;;-146.58;100.00;69501.63;5013505;28;20066;-59
2022/08/10 00:50:06;;;;;;;3.90;3.00;;;;;;;-146.58;100.00;69501.63;5028693;28;20021;-59
2022/08/10 00:52:33;;;;;;;5.55;3.15;;;;;;;-146.58;100.00;69501.63;5031490;28;20029;-62
2022/08/10 00:54:59;;;;;;;3.28;2.72;;;;;;;-146.58;100.00;69501.63;5030479;28;20091;-61
2022/08/10 00:57:25;;;;;;;4.10;3.13;;;;;;;-146.58;100.00;69501.63;5031561;28;20083;-61
2022/08/10 00:59:52;;;;;;;2.90;2.70;;;;;;;-146.58;100.00;69501.63;5031473;28;20037;-61
2022/08/10 01:02:17;;;;;;;6.45;3.33;;;;;;;-146.58;100.00;69501.63;5029204;28;20037;-61
2022/08/10 01:04:42;;;;;;;5.68;3.05;;;;;;;-146.58;100.00;69501.63;5030850;28;20029;-61
2022/08/10 01:07:32;;;;;;;3.70;3.33;;;;;;;-146.58;100.00;69501.63;5029967;28;20046;-61
2022/08/10 01:10:22;;;;;;;3.45;3.15;;;;;;;-146.58;100.00;69501.63;5029094;28;20056;-61
2022/08/10 01:12:55;;;;;;;2.90;2.70;;;;;;;-146.58;100.00;69501.63;5030572;28;20499;-62
2022/08/10 01:15:27;;;;;;;5.90;3.38;;;;;;;-146.58;100.00;69501.63;5026876;28;20111;-61
2022/08/10 01:18:01;;;;;;;4.00;3.65;;;;;;;-146.58;100.00;69501.63;5013948;28;20052;-62
2022/08/10 01:20:40;;;;;;;2.88;2.60;;;;;;;-146.58;100.00;69501.63;5029607;28;20072;-62
2022/08/10 01:23:33;;;;;;;2.70;2.50;;;;;;;-146.58;100.00;69501.63;5030653;28;20048;-61
2022/08/10 01:26:11;;;;;;;3.47;2.75;;;;;;;-146.58;100.00;69501.63;5029976;28;20042;-61
2022/08/10 01:28:55;;;;;;;2.92;2.55;;;;;;;-146.58;100.00;69501.63;5031087;28;20131;-61
2022/08/10 01:31:26;;;;;;;6.65;3.53;;;;;;;-146.58;100.00;69501.63;5026044;28;20038;-61
2022/08/10 01:33:56;;;;;;;6.20;3.50;;;;;;;-146.58;100.00;69501.63;5011526;28;20026;-62
2022/08/10 01:36:29;;;;;;;3.22;2.88;;;;;;;-146.58;100.00;69501.63;5010233;28;20068;-61
2022/08/10 01:39:00;;;;;;;6.13;3.22;;;;;;;-146.58;100.00;69501.63;5011170;28;20044;-62
2022/08/10 01:41:30;;;;;;;6.63;3.30;;;;;;;-146.58;100.00;69501.63;5009955;28;20441;-61
2022/08/10 01:44:02;;;;;;;4.07;3.00;;;;;;;-146.58;100.00;69501.63;5011138;28;20056;-62
2022/08/10 01:46:29;;;;;;;5.10;3.63;;;;;;;-146.58;100.00;69501.63;5010207;28;20444;-61
2022/08/10 01:48:57;;;;;;;6.32;3.90;;;;;;;-146.58;100.00;69501.63;5024639;28;20021;-62
2022/08/10 01:51:31;;;;;;;4.80;4.03;;;;;;;-146.58;100.00;69501.63;5028342;28;20056;-62
2022/08/10 01:54:00;;;;;;;3.45;3.15;;;;;;;-146.58;100.00;69501.63;5031313;28;20480;-62
2022/08/10 01:56:29;;;;;;;3.83;3.50;;;;;;;-146.58;100.00;69501.63;5029286;28;20505;-62
2022/08/10 01:58:59;;;;;;;4.57;3.40;;;;;;;-146.58;100.00;69501.63;5030801;28;20040;-62
2022/08/10 02:01:29;;;;;;;3.60;3.30;;;;;;;-146.58;100.00;69501.63;5029377;28;20119;-62
2022/08/10 02:03:58;;;;;;;4.65;3.13;;;;;;;-146.58;100.00;69501.63;5017766;28;20037;-62
2022/08/10 02:06:26;;;;;;;5.40;3.78;;;;;;;-146.58;100.00;69501.63;5019931;28;20132;-61
2022/08/10 02:08:54;;;;;;;4.90;4.10;;;;;;;-146.58;100.00;69501.63;5011188;28;20564;-62
2022/08/10 02:11:21;;;;;;;5.68;3.65;;;;;;;-146.58;100.00;69501.63;5009617;28;20041;-61
2022/08/10 02:13:48;;;;;;;3.47;3.17;;;;;;;-146.58;100.00;69501.63;5010769;28;20548;-61
2022/08/10 02:16:15;;;;;;;7.32;3.63;;;;;;;-146.58;100.00;69501.63;5009627;28;20070;-61
2022/08/10 02:18:41;;;;;;;4.15;3.75;;;;;;;-146.58;100.00;69501.63;5011284;28;20026;-59
2022/08/10 02:21:09;;;;;;;6.00;4.22;;;;;;;-146.58;100.00;69501.63;5015945;28;20044;-59
2022/08/10 02:23:38;;;;;;;4.70;4.13;;;;;;;-146.58;100.00;69501.63;5031078;28;20025;-60
2022/08/10 02:26:06;;;;;;;4.22;3.83;;;;;;;-146.58;100.00;69501.63;5013655;28;20413;-60
2022/08/10 02:28:34;;;;;;;5.90;4.77;;;;;;;-146.58;100.00;69501.63;5014215;28;20053;-60
2022/08/10 02:31:07;;;;;;;5.10;4.53;;;;;;;-146.58;100.00;69501.63;5013247;28;20552;-60
2022/08/10 02:33:35;;;;;;;5.22;4.72;;;;;;;-146.58;100.00;69501.63;5014651;28;20072;-60
2022/08/10 02:36:04;;;;;;;6.80;4.45;;;;;;;-146.58;100.00;69501.63;5020786;28;20069;-60
2022/08/10 02:38:49;;;;;;;5.90;5.35;;;;;;;-146.58;100.00;69501.63;5034083;28;20060;-60
2022/08/10 02:41:33;;;;;;;5.70;4.97;;;;;;;-146.58;100.00;69501.63;5031915;28;20446;-60
2022/08/10 02:44:04;;;;;;;6.82;5.18;;;;;;;-146.58;100.00;69501.63;5013078;28;20417;-60
2022/08/10 02:46:43;;;;;;;5.20;4.32;;;;;;;-146.58;100.00;69501.63;5014751;28;20037;-60
2022/08/10 02:49:16;;;;;;;5.15;4.68;;;;;;;-146.58;100.00;69501.63;5031718;28;20048;-58
2022/08/10 02:51:45;;;;;;;5.07;4.65;;;;;;;-146.58;100.00;69501.63;5033751;28;20025;-58
2022/08/10 02:54:19;;;;;;;5.43;5.03;;;;;;;-146.58;100.00;69501.63;5032781;28;20388;-60
2022/08/10 02:57:04;;;;;;;6.45;5.72;;;;;;;-146.58;100.00;69501.63;5034431;28;20025;-60
2022/08/10 02:59:48;;;;;;;7.18;5.55;;;;;;;-146.58;100.00;69501.63;5030937;28;20516;-60
2022/08/10 03:02:26;;;;;;;7.47;6.25;;;;;;;-146.58;100.00;69501.63;5033943;28;20032;-60
2022/08/10 03:04:55;;;;;;;7.47;5.90;;;;;;;-146.58;100.00;69501.63;5017463;28;20636;-59
2022/08/10 03:07:24;;;;;;;6.53;5.85;;;;;;;-146.58;100.00;69501.63;5013636;28;20026;-60
2022/08/10 03:09:50;;;;;;;;;;;;;;;-146.58;100.00;69501.63;5013298;28;20034;-60
2022/08/10 03:12:17;;;;;;;6.53;5.80;;;;;;;-146.58;100.00;69501.63;5014270;28;19947;-60
2022/08/10 03:14:44;;;;;;;11.13;7.38;;;;;;;-146.58;100.00;69501.63;5019301;28;20038;-60
2022/08/10 03:17:10;;;;;;;8.40;7.30;;;;;;;-146.58;100.00;69501.63;5023072;28;20022;-60
2022/08/10 03:19:36;;;;;;;8.93;6.70;;;;;;;-146.58;100.00;69501.63;5026181;28;20573;-60
2022/08/10 03:22:03;;;;;;;8.50;6.88;;;;;;;-146.58;100.00;69501.63;5033370;28;20029;-60
2022/08/10 03:24:30;;;;;;;8.75;7.85;;;;;;;-146.58;100.00;69501.63;5032149;28;20041;-60
2022/08/10 03:26:56;;;;;;;7.82;5.97;;;;;;;-146.58;100.00;69501.63;5024525;28;20053;-60
2022/08/10 03:29:22;;;;;;;7.63;6.93;;;;;;;-146.58;100.00;69501.63;5011657;28;20069;-60
2022/08/10 03:31:48;;;;;;;7.43;6.57;;;;;;;-146.58;100.00;69501.63;5013806;28;20068;-62
2022/08/10 03:34:16;;;;;;;7.75;6.95;;;;;;;-146.58;100.00;69501.63;5012169;28;20104;-61
2022/08/10 03:36:42;;;;;;;7.13;6.38;;;;;;;-146.58;100.00;69501.63;5027836;28;20025;-62
2022/08/10 03:39:08;;;;;;;11.60;7.60;;;;;;;-146.58;100.00;69501.63;5031930;28;20028;-62
2022/08/10 03:41:40;;;;;;;8.48;7.57;;;;;;;-146.58;100.00;69501.63;5025876;28;20018;-61
2022/08/10 03:44:07;;;;;;;8.13;7.28;;;;;;;-146.58;100.00;69501.63;5014662;28;20029;-62
2022/08/10 03:46:36;;;;;;;10.15;6.40;;;;;;;-146.58;100.00;69501.63;5032121;28;20010;-62
2022/08/10 03:49:04;;;;;;;8.15;7.35;;;;;;;-146.58;100.00;69501.63;5021750;28;20057;-61
2022/08/10 03:51:30;;;;;;;15.90;9.00;;;;;;;-146.58;100.00;69501.63;5012939;28;20022;-61
2022/08/10 03:53:57;;;;;;;9.48;8.57;;;;;;;-146.58;100.00;69501.63;5022132;28;20497;-61
2022/08/10 03:56:23;;;;;;;11.23;7.68;;;;;;;-146.58;100.00;69501.63;5031312;28;20072;-61
2022/08/10 03:58:49;;;;;;;17.35;9.00;;;;;;;-146.58;100.00;69501.63;5032521;28;20094;-61
2022/08/10 04:01:15;;;;;;;8.10;7.30;;;;;;;-146.58;100.00;69501.63;5031664;28;20440;-61
2022/08/10 04:03:41;;;;;;;10.02;8.40;;;;;;;-146.58;100.00;69501.63;5032658;28;20100;-61
2022/08/10 04:06:08;;;;;;;8.35;7.55;;;;;;;-146.58;100.00;69501.63;5031094;28;20465;-61
2022/08/10 04:08:33;;;;;;;15.07;10.43;;;;;;;-146.58;100.00;69501.63;5019061;28;20034;-61
2022/08/10 04:10:59;;;;;;;9.55;8.60;;;;;;;-146.58;100.00;69501.63;5011625;28;20046;-61
2022/08/10 04:13:24;;;;;;;8.65;7.85;;;;;;;-146.58;100.00;69501.63;5021286;28;20033;-59
2022/08/10 04:15:49;;;;;;;10.20;8.35;;;;;;;-146.58;100.00;69501.63;5014944;28;20501;-61
2022/08/10 04:18:15;;;;;;;8.43;7.63;;;;;;;-146.58;100.00;69501.63;5012662;28;20030;-61
2022/08/10 04:20:51;;;;;;;9.65;8.77;;;;;;;-146.58;100.00;69501.63;5010710;28;20073;-61
2022/08/10 04:23:26;;;;;;;14.57;10.00;;;;;;;-146.58;100.00;69501.63;5012814;28;20646;-61
2022/08/10 04:25:52;;;;;;;10.25;9.35;;;;;;;-146.58;100.00;69501.63;5011349;28;20502;-61
2022/08/10 04:28:17;;;;;;;10.02;8.98;;;;;;;-146.58;100.00;69501.63;5014910;28;20077;-61
2022/08/10 04:30:45;;;;;;;12.40;10.38;;;;;;;-146.58;100.00;69501.63;5029847;28;20041;-61
2022/08/10 04:33:13;;;;;;;14.45;9.75;;;;;;;-146.58;100.00;69501.63;5032365;28;20032;-61
2022/08/10 04:35:40;;;;;;;12.05;10.55;;;;;;;-146.58;100.00;69501.63;5029022;28;20128;-61
2022/08/10 04:38:08;;;;;;;11.02;8.73;;;;;;;-146.58;100.00;69501.63;5030066;28;20053;-61
2022/08/10 04:40:33;;;;;;;10.47;9.47;;;;;;;-146.58;100.00;69501.63;5011243;28;20040;-61
2022/08/10 04:43:01;;;;;;;13.38;9.52;;;;;;;-146.58;100.00;69501.63;5012918;28;20116;-61
2022/08/10 04:45:27;;;;;;;13.65;8.43;;;;;;;-146.58;100.00;69501.63;5013602;28;20496;-61
2022/08/10 04:47:52;;;;;;;14.75;10.13;;;;;;;-146.58;100.00;69501.63;5028010;28;20034;-62
2022/08/10 04:50:17;;;;;;;11.27;8.57;;;;;;;-146.58;100.00;69501.63;5028310;28;20041;-62
2022/08/10 04:52:43;;;;;;;10.13;8.48;;;;;;;-146.58;100.00;69501.63;5031861;28;20033;-58
2022/08/10 04:55:08;;;;;;;11.95;10.32;;;;;;;-146.58;100.00;69501.63;5026954;28;20107;-58
2022/08/10 04:57:33;;;;;;;12.45;10.30;;;;;;;-146.58;100.00;69501.63;5011533;28;20058;-58
2022/08/10 04:59:59;;;;;;;13.73;9.65;;;;;;;-146.58;100.00;69501.63;5010697;28;20037;-58
2022/08/10 05:02:24;;;;;;;12.07;9.82;;;;;;;-146.58;100.00;69501.63;5014552;28;20044;-58
2022/08/10 05:04:50;;;;;;;15.40;9.27;;;;;;;-146.58;100.00;69501.63;5012413;28;20041;-59
2022/08/10 05:07:15;;;;;;;11.82;10.02;;;;;;;-146.58;100.00;69501.63;5016443;28;20065;-59
2022/08/10 05:09:41;;;;;;;12.38;10.00;;;;;;;-146.58;100.00;69501.63;5018270;28;20038;-59
2022/08/10 05:12:07;;;;;;;10.20;9.20;;;;;;;-146.58;100.00;69501.63;5019968;28;20032;-59
2022/08/10 05:14:33;;;;;;;11.38;9.25;;;;;;;-146.58;100.00;69501.63;5018412;28;20041;-59
2022/08/10 05:16:58;;;;;;;13.65;10.40;;;;;;;-146.58;100.00;69501.63;5017586;28;20531;-59
2022/08/10 05:19:25;;;;;;;11.70;9.77;;;;;;;-146.58;100.00;69501.63;5018180;28;20121;-58
2022/08/10 05:21:50;;;;;;;12.82;11.27;;;;;;;-146.58;100.00;69501.63;5020828;28;20537;-59
2022/08/10 05:24:16;;;;;;;13.45;10.68;;;;;;;-146.58;100.00;69501.63;5017437;28;20028;-58
2022/08/10 05:26:41;;;;;;;11.50;10.43;;;;;;;-146.58;100.00;69501.63;5017714;28;20021;-60
2022/08/10 05:29:06;;;;;;;10.68;9.57;;;;;;;-146.58;100.00;69501.63;5019947;28;20058;-60
2022/08/10 05:31:32;;;;;;;11.20;9.90;;;;;;;-146.58;100.00;69501.63;5020456;28;20022;-60
2022/08/10 05:33:57;;;;;;;12.93;10.10;;;;;;;-146.58;100.00;69501.63;5018201;28;20037;-62
2022/08/10 05:36:23;;;;;;;12.15;10.13;;;;;;;-146.58;100.00;69501.63;5016865;28;20093;-61
2022/08/10 05:38:49;;;;;;;10.85;9.63;;;;;;;-146.58;100.00;69501.63;5014026;28;20133;-61
2022/08/10 05:41:15;;;;;;;12.02;10.02;;;;;;;-146.58;100.00;69501.63;5016214;28;20079;-60
2022/08/10 05:43:41;;;;;;;10.65;9.63;;;;;;;-146.58;100.00;69501.63;5021223;28;20040;-62
2022/08/10 05:46:06;;;;;;;12.23;10.35;;;;;;;-146.58;100.00;69501.63;5018201;28;20587;-60
2022/08/10 05:48:33;;;;;;;10.82;9.73;;;;;;;-146.58;100.00;69501.63;5017385;28;20033;-59
2022/08/10 05:50:59;;;;;;;11.98;10.77;;;;;;;-146.58;100.00;69501.63;5017159;28;20119;-60
2022/08/10 05:53:24;;;;;;;16.27;10.02;;;;;;;-146.58;100.00;69501.63;5017245;28;20030;-59
2022/08/10 05:55:50;;;;;;;11.45;10.25;;;;;;;-146.58;100.00;69501.63;5017267;28;20038;-61
2022/08/10 05:58:15;;;;;;;12.55;8.52;;;;;;;-146.58;100.00;69501.63;5022301;28;20079;-61
2022/08/10 06:00:45;;;;;;;10.63;9.43;;;;;;;-146.58;100.00;69501.63;5023891;28;20128;-61
2022/08/10 06:03:15;;;;;;;9.68;8.77;;;;;;;-146.58;100.00;69501.63;5025649;28;20047;-61
2022/08/10 06:05:43;;;;;;;18.38;9.95;;;;;;;-146.58;100.00;69501.63;5021234;28;20048;-61
2022/08/10 06:08:11;;;;;;;9.40;8.50;;;;;;;-146.58;100.00;69501.63;5037120;28;20107;-61
2022/08/10 06:10:37;;;;;;;;;;;;;;;-146.58;100.00;69501.63;5035648;28;20049;-61
2022/08/10 06:15:51;;;;;;;11.65;9.15;;;;;;;-146.58;100.00;69501.63;5017594;28;20679;-60
2022/08/10 06:18:18;;;;;;;11.82;9.77;;;;;;;-146.58;100.00;69501.63;5016780;28;20033;-60
2022/08/10 06:20:44;;;;;;;9.60;8.60;;;;;;;-146.58;100.00;69501.63;5015716;28;20125;-61
2022/08/10 06:23:11;;;;;;;10.50;9.50;;;;;;;-146.58;100.00;69501.63;5033539;28;20037;-61
2022/08/10 06:25:37;;;;;;;9.07;7.80;;;;;;;-146.58;100.00;69501.63;5028135;28;20042;-61
2022/08/10 06:28:03;;;;;;;9.13;7.55;;;;;;;-146.58;100.00;69501.63;5016150;28;20050;-61
2022/08/10 06:30:30;;;;;;;7.53;6.93;;;;;;;-146.58;100.00;69501.63;5015443;28;20041;-61
2022/08/10 06:32:58;;;;;;;10.95;8.07;;;;;;;-146.58;100.00;69501.63;5015213;28;20062;-61
2022/08/10 06:35:30;;;;;;;7.80;6.75;;;;;;;-146.58;100.00;69501.63;5015488;28;20057;-61
2022/08/10 06:37:58;;;;;;;8.88;6.72;;;;;;;-146.58;100.00;69501.63;5035347;28;20032;-61
2022/08/10 06:40:31;;;;;;;8.75;7.18;;;;;;;-146.58;100.00;69501.63;5029230;28;20050;-60
2022/08/10 06:42:59;;;;;;;8.77;6.75;;;;;;;-146.58;100.00;69501.63;5035924;28;20117;-61
2022/08/10 06:45:32;;;;;;;6.70;5.97;;;;;;;-146.58;100.00;69501.63;5025432;28;20038;-61
2022/08/10 06:48:15;;;;;;;9.52;5.75;;;;;;;-146.58;100.00;69501.63;5022465;28;20091;-60
2022/08/10 06:50:45;;;;;;;6.95;6.30;;;;;;;-146.58;100.00;69501.63;5035146;28;20033;-60
2022/08/10 06:53:16;;;;;;;6.07;5.47;;;;;;;-146.58;100.00;69501.63;5027405;28;20095;-59
2022/08/10 06:55:48;;;;;;;6.85;4.28;;;;;;;-146.58;100.00;69501.63;5015094;28;20615;-59
2022/08/10 06:58:15;;;;;;;6.97;5.22;;;;;;;-146.58;100.00;69501.63;5017231;28;20596;-59
2022/08/10 07:00:42;;;;;;;4.47;4.07;;;;;;;-146.58;100.00;69501.63;5015078;28;20042;-59
2022/08/10 07:03:13;;;;;;;5.43;3.97;;;;;;;-146.58;100.00;69501.63;5030089;28;20148;-59
2022/08/10 07:05:46;;;;;;;5.68;4.18;;;;;;;-146.58;100.00;69501.63;5034998;28;20091;-59
2022/08/10 07:08:13;;;;;;;6.05;3.30;;;;;;;-146.58;100.00;69501.63;5036977;28;20083;-60
2022/08/10 07:10:39;;;;;;;6.85;4.13;;;;;;;-146.58;100.00;69501.63;5032498;28;20660;-59
2022/08/10 07:13:05;;;;;;;5.63;4.00;;;;;;;-146.58;100.00;69501.63;5018714;28;20029;-60
2022/08/10 07:15:31;;;;;;;6.20;3.67;;;;;;;-146.58;100.00;69501.63;5011976;28;20042;-59
2022/08/10 07:17:59;;;;;;;6.07;3.15;;;;;;;-146.58;100.00;69501.63;5013388;28;20031;-60
2022/08/10 07:20:26;;;;;;;3.15;2.83;;;;;;;-146.58;100.00;69501.63;5011870;28;20097;-59
2022/08/10 07:22:53;;;;;;;6.32;2.90;;;;;;;-146.58;100.00;69501.63;5023065;28;20029;-60
2022/08/10 07:25:23;;;;;;;7.55;3.35;;;;;;;-146.58;100.00;69501.63;5031386;28;20065;-59
2022/08/10 07:27:50;;;;;;;6.15;3.20;;;;;;;-146.58;100.00;69501.63;5033088;28;20433;-59
2022/08/10 07:30:15;;;;;;;8.82;3.47;;;;;;;-146.58;100.00;69501.63;5031761;28;20037;-59
2022/08/10 07:32:43;;;;;;;4.97;3.25;;;;;;;-146.58;100.00;69501.63;5032920;28;20365;-60
2022/08/10 07:35:12;;;;;;;5.70;2.42;;;;;;;-146.58;100.00;69501.63;5031641;28;20044;-60
2022/08/10 07:37:39;;;;;;;4.32;3.20;;;;;;;-146.58;100.00;69501.63;5032577;28;20045;-59
2022/08/10 07:40:08;;;;;;;6.68;2.15;;;;;;;-146.58;100.00;69501.63;5031275;28;20519;-59
2022/08/10 07:42:35;;;;;;;;;;;;;;;-146.58;100.00;69501.63;5027801;28;20545;-59
2022/08/10 07:45:03;;;;;;;5.82;2.00;;;;;;;-146.58;100.00;69501.63;5011873;28;19913;-60
2022/08/10 07:47:36;;;;;;;3.65;2.55;;;;;;;-146.58;100.00;69501.63;5012892;28;20022;-59
2022/08/10 07:50:06;;;;;;;3.88;1.98;;;;;;;-146.58;100.00;69501.63;5011577;28;20125;-60
2022/08/10 07:52:33;;;;;;;2.70;2.50;;;;;;;-146.58;100.00;69501.63;5019230;28;20033;-59
2022/08/10 07:55:02;;;;;;;7.47;2.45;;;;;;;-146.58;100.00;69501.63;5031035;28;20037;-59
2022/08/10 07:57:32;;;;;;;6.78;2.80;;;;;;;-146.58;100.00;69501.63;5032551;28;20469;-59
2022/08/10 08:00:03;;;;;;;4.43;2.25;;;;;;;-146.58;100.00;69501.63;5031371;28;20095;-59
2022/08/10 08:02:33;;;;;;;2.00;1.88;;;;;;;-146.58;100.00;69501.63;5029542;28;20038;-59
2022/08/10 08:05:03;;;;;;;6.45;2.13;;;;;;;-146.58;100.00;69501.63;5011317;28;20040;-59
2022/08/10 08:07:29;;;;;;;4.50;2.10;;;;;;;-146.58;100.00;69501.63;5012623;28;20022;-59
2022/08/10 08:09:56;;;;;;;2.75;2.25;;;;;;;-146.58;100.00;69501.63;5011098;28;20619;-60
2022/08/10 08:12:23;;;;;;;2.33;2.13;;;;;;;-146.58;100.00;69501.63;5012266;28;20474;-60
2022/08/10 08:14:49;;;;;;;8.65;2.20;;;;;;;-146.58;100.00;69501.63;5011006;28;20509;-59
2022/08/10 08:17:16;;;;;;;5.93;2.20;;;;;;;-146.58;100.00;69501.63;5012265;28;20022;-60
2022/08/10 08:19:45;;;;;;;2.25;2.00;;;;;;;-146.58;100.00;69501.63;5027606;28;20037;-59
2022/08/10 08:22:11;;;;;;;2.45;1.75;;;;;;;-146.58;100.00;69501.63;5027689;28;20033;-59
2022/08/10 08:24:38;;;;;;;6.22;2.45;;;;;;;-146.58;100.00;69501.63;5010484;28;20041;-60
2022/08/10 08:27:05;;;;;;;7.57;2.03;;;;;;;-146.58;100.00;69501.63;5012173;28;20052;-60
2022/08/10 08:29:33;;;;;;;2.58;2.38;;;;;;;-146.58;100.00;69501.63;5010683;28;20084;-60
2022/08/10 08:32:01;;;;;;;3.50;1.75;;;;;;;-146.58;100.00;69501.63;5013257;28;20022;-60
2022/08/10 08:34:27;;;;;;;2.63;1.40;;;;;;;-146.58;100.00;69501.63;5030376;28;20037;-60
2022/08/10 08:36:53;;;;;;;1.80;1.70;;;;;;;-146.58;100.00;69501.63;5020261;28;20033;-59
2022/08/10 08:39:19;;;;;;;4.32;2.05;;;;;;;-146.58;100.00;69501.63;5010107;28;20107;-60
2022/08/10 08:42:02;;;;;;;2.25;1.90;;;;;;;-146.58;100.00;69501.63;5012102;28;20034;-60
2022/08/10 08:44:59;;;;;;;8.38;1.98;;;;;;;-146.58;100.00;69501.63;5010585;28;20116;-60
2022/08/10 08:47:38;;;;;;;3.58;1.65;;;;;;;-146.58;100.00;69501.63;5016937;28;20037;-59
2022/08/10 08:50:15;;;;;;;6.22;2.40;;;;;;;-146.58;100.00;69501.63;5029438;28;20038;-59
2022/08/10 08:53:09;;;;;;;6.05;1.75;;;;;;;-146.58;100.00;69501.63;5023779;28;20048;-60
2022/08/10 08:56:02;;;;;;;7.80;2.33;;;;;;;-146.58;100.00;69501.63;5009968;28;20034;-59
2022/08/10 08:58:27;;;;;;;4.68;1.73;;;;;;;-146.58;100.00;69501.63;5024109;28;20037;-60
2022/08/10 09:01:04;;;;;;;5.38;2.08;;;;;;;-146.58;100.00;69501.63;5022341;28;20049;-59
2022/08/10 09:03:47;;;;;;;6.47;2.40;;;;;;;-146.58;100.00;69501.63;5024353;28;20029;-59
2022/08/10 09:06:31;;;;;;;5.32;2.15;;;;;;;-146.58;100.00;69501.63;5020559;28;20057;-59
2022/08/10 09:09:21;;;;;;;5.88;1.77;;;;;;;-146.58;100.00;69501.63;5025961;28;20022;-59
2022/08/10 09:11:49;;;;;;;3.35;1.90;;;;;;;-146.58;100.00;69501.63;5018708;28;20045;-59
2022/08/10 09:14:20;;;;;;;5.45;1.77;;;;;;;-146.58;100.00;69501.63;5030078;28;20025;-60
2022/08/10 09:17:02;;;;;;;2.25;1.75;;;;;;;-146.58;100.00;69501.63;5023313;28;20060;-59
2022/08/10 09:19:42;;;;;;;6.68;1.95;;;;;;;-146.58;100.00;69501.63;5025746;28;20083;-59
2022/08/10 09:22:34;;;;;;;5.07;2.78;;;;;;;-146.58;100.00;69501.63;5026276;28;20123;-60
2022/08/10 09:25:12;;;;;;;2.40;1.45;;;;;;;-146.58;100.00;69501.63;5013262;28;20037;-59
2022/08/10 09:27:47;;;;;;;2.55;2.00;;;;;;;-146.58;100.00;69501.63;5012998;28;20122;-60
2022/08/10 09:30:25;;;;;;;15.88;3.25;;;;;;;-146.58;100.00;69501.63;5022885;28;20033;-59
2022/08/10 09:33:00;;;;;;;4.72;2.28;;;;;;;-146.58;100.00;69501.63;5028630;28;20048;-59
2022/08/10 09:35:48;;;;;;;2.25;1.75;;;;;;;-146.58;100.00;69501.63;5019502;28;20041;-59
2022/08/10 09:38:27;;;;;;;4.13;1.88;;;;;;;-146.58;100.00;69501.63;5030692;28;20032;-60
2022/08/10 09:41:00;;;;;;;3.72;1.60;;;;;;;-146.58;100.00;69501.63;5028380;28;20068;-59
2022/08/10 09:43:41;;;;;;;4.57;2.10;;;;;;;-146.58;100.00;69501.63;5010696;28;20176;-60
2022/08/10 09:46:12;;;;;;;1.48;1.38;;;;;;;-146.58;100.00;69501.63;5016576;28;20045;-60
2022/08/10 09:48:45;;;;;;;4.60;1.90;;;;;;;-146.58;100.00;69501.63;5013644;28;20080;-60
2022/08/10 09:51:30;;;;;;;1.55;1.20;;;;;;;-146.58;100.00;69501.63;5018161;28;20050;-60
2022/08/10 09:54:19;;;;;;;6.35;1.75;;;;;;;-146.58;100.00;69501.63;5029092;28;20105;-60
2022/08/10 09:57:05;;;;;;;3.83;1.55;;;;;;;-146.58;100.00;69501.63;5015289;28;20500;-60
2022/08/10 10:00:10;;;;;;;4.38;1.75;;;;;;;-146.58;100.00;69501.63;5016411;28;20065;-59
2022/08/10 10:02:54;;;;;;;3.40;1.80;;;;;;;-146.58;100.00;69501.63;5010650;28;20033;-60
2022/08/10 10:05:45;;;;;;;4.00;1.65;;;;;;;-146.58;100.00;69501.63;5009466;28;20046;-60
2022/08/10 10:08:41;;;;;;;2.20;1.80;;;;;;;-146.58;100.00;69501.63;5023275;28;20037;-59
2022/08/10 10:11:41;;;;;;;3.15;1.20;;;;;;;-146.58;100.00;69501.63;5017963;28;20521;-60
2022/08/10 10:15:19;;;;;;;3.20;1.75;;;;;;;-146.58;100.00;69501.63;5029028;28;20034;-59
2022/08/10 10:17:40;;;;;;;5.10;1.88;;;;;;;-146.58;100.00;69501.63;5013433;28;20049;-59
2022/08/10 10:20:13;;;;;;;2.95;1.70;;;;;;;-146.58;100.00;69501.63;5029322;28;20401;-60
2022/08/10 10:23:09;;;;;;;8.60;2.03;;;;;;;-146.58;100.00;69501.63;5024664;28;20021;-59
2022/08/10 10:26:04;;;;;;;2.35;1.92;;;;;;;-146.58;100.00;69501.63;5009733;28;20045;-59
2022/08/10 10:28:34;;;;;;;2.58;1.30;;;;;;;-146.58;100.00;69501.63;5029976;28;20121;-59
2022/08/10 10:31:23;;;;;;;2.95;1.70;;;;;;;-146.58;100.00;69501.63;5028866;28;20045;-59
2022/08/10 10:34:10;;;;;;;5.88;1.55;;;;;;;-146.58;100.00;69501.63;5021604;28;20022;-59
2022/08/10 10:36:38;;;;;;;2.35;1.50;;;;;;;-146.58;100.00;69501.63;5028086;28;20119;-59
2022/08/10 10:39:05;;;;;;;5.65;1.58;;;;;;;-146.58;100.00;69501.63;5022888;28;20037;-59
2022/08/10 10:41:43;;;;;;;2.20;1.47;;;;;;;-146.58;100.00;69501.63;5010709;28;20029;-59
2022/08/10 10:44:27;;;;;;;3.38;1.35;;;;;;;-146.58;100.00;69501.63;5009782;28;20105;-59
2022/08/10 10:47:14;;;;;;;1.63;1.23;;;;;;;-146.58;100.00;69501.63;5032862;28;20048;-59
2022/08/10 10:49:59;;;;;;;3.47;2.13;;;;;;;-146.58;100.00;69501.63;5032866;28;20099;-59
2022/08/10 10:53:01;;;;;;;5.55;1.52;;;;;;;-146.58;100.00;69501.63;5030769;28;20606;-59
2022/08/10 10:55:36;;;;;;;2.03;1.25;;;;;;;-146.58;100.00;69501.63;5024620;28;20037;-59
2022/08/10 10:58:21;;;;;;;4.68;1.58;;;;;;;-146.58;100.00;69501.63;5029184;28;20393;-59
2022/08/10 11:01:00;;;;;;;4.93;1.77;;;;;;;-146.58;100.00;69501.63;5031165;28;20046;-59
2022/08/10 11:03:43;;;;;;;3.50;1.83;;;;;;;-146.58;100.00;69501.63;5013909;28;20397;-59
2022/08/10 11:06:19;;;;;;;5.72;1.83;;;;;;;-146.58;100.00;69501.63;5013852;28;20103;-59
2022/08/10 11:08:49;;;;;;;6.87;1.37;;;;;;;-146.58;100.00;69501.63;5029087;28;20033;-59
2022/08/10 11:11:25;;;;;;;4.05;1.35;;;;;;;-146.58;100.00;69501.63;5029740;28;20400;-59
2022/08/10 11:14:15;;;;;;;8.13;1.80;;;;;;;-146.58;100.00;69501.63;5013744;28;20041;-60
2022/08/10 11:17:04;;;;;;;3.80;1.70;;;;;;;-146.58;100.00;69501.63;5012991;28;20049;-59
2022/08/10 11:19:44;;;;;;;6.07;1.80;;;;;;;-146.58;100.00;69501.63;5018589;28;20505;-60
2022/08/10 11:22:27;;;;;;;3.90;1.55;;;;;;;-146.58;100.00;69501.63;5015277;28;20026;-59
2022/08/10 11:25:07;;;;;;;4.38;1.77;;;;;;;-146.58;100.00;69501.63;5013494;28;20065;-59
2022/08/10 11:27:53;;;;;;;3.28;1.25;;;;;;;-146.58;100.00;69501.63;5022812;28;20038;-59
2022/08/10 11:30:27;;;;;;;3.07;1.37;;;;;;;-146.58;100.00;69501.63;5014701;28;20592;-59